Flugplatz Altenstadt Army Airfield

Bericht für ETHA

vom 25.09. um 18:20 UTC

Wind 3 kt aus 250°

Sichtweite 10 km oder mehr

schwacher Regen

gering bewölkt in 1000 ft

aufgebrochene Bewölkung in 4000 ft

aufgebrochene Bewölkung in 9000 ft

Temperatur 4.0°C

Taupunkt 3.0°C

Luftfeuchtigkeit 93%

Luftdruck 1002 hPa

ETHA 251820Z 25003KT 9999 -RA FEW010 BKN040 BKN090 04/03 Q1002 BLU
Keine Prognose (TAF) verfügbar.
Impressum